Time;durP1;ratioP1;P1;durP2;ratioP2;P2;SDS_P1;SDS_P2;PMS_P1;PMS_P2;Temp;Humidity;BMP_temperature;BMP_pressure;BME280_temperature;BME280_humidity;BME280_pressure;Samples;Min_cycle;Max_cycle;Signal;HPM_P1;HPM_P2
2021/04/10 00:01:37;;;;;;;1.03;0.87;;;16.50;77.00;;;;;;4978521;28;95329;-45
2021/04/10 00:04:12;;;;;;;0.77;0.77;;;16.60;77.10;;;;;;4980934;28;95332;-45
2021/04/10 00:06:42;;;;;;;1.23;0.88;;;16.60;77.10;;;;;;4984824;28;95934;-43
2021/04/10 00:09:14;;;;;;;1.67;1.10;;;16.60;77.00;;;;;;4985299;28;95824;-43
2021/04/10 00:11:44;;;;;;;2.93;1.10;;;16.60;77.00;;;;;;4988480;28;95666;-45
2021/04/10 00:14:16;;;;;;;0.93;0.88;;;16.60;77.00;;;;;;4984757;28;96046;-43
2021/04/10 00:16:46;;;;;;;0.98;0.75;;;16.70;77.20;;;;;;4983895;28;96460;-44
2021/04/10 00:19:17;;;;;;;1.23;0.93;;;16.70;76.90;;;;;;4977373;28;96147;-43
2021/04/10 00:21:46;;;;;;;0.75;0.70;;;16.70;76.90;;;;;;4969010;28;95471;-44
2021/04/10 00:24:16;;;;;;;0.98;0.85;;;16.70;76.90;;;;;;4986087;28;95448;-44
2021/04/10 00:26:46;;;;;;;1.45;0.85;;;16.70;76.90;;;;;;4987562;28;95912;-43
2021/04/10 00:29:19;;;;;;;0.80;0.70;;;16.70;76.80;;;;;;4986406;28;95269;-43
2021/04/10 00:31:50;;;;;;;1.60;0.80;;;16.70;76.70;;;;;;4976777;28;96119;-44
2021/04/10 00:34:20;;;;;;;0.73;0.63;;;16.70;76.70;;;;;;4973027;28;95603;-43
2021/04/10 00:36:50;;;;;;;1.20;0.90;;;16.70;76.70;;;;;;4978856;28;95992;-43
2021/04/10 00:39:19;;;;;;;0.75;0.75;;;16.70;76.70;;;;;;4973399;28;95373;-43
2021/04/10 00:41:48;;;;;;;1.67;1.00;;;16.80;76.70;;;;;;4987849;28;95929;-43
2021/04/10 00:44:19;;;;;;;1.83;1.13;;;16.80;76.70;;;;;;4986981;28;98265;-44
2021/04/10 00:46:51;;;;;;;3.20;1.35;;;16.80;76.70;;;;;;4984698;28;95866;-43
2021/04/10 00:49:21;;;;;;;1.08;0.82;;;16.80;76.70;;;;;;4986275;28;95962;-43
2021/04/10 00:51:51;;;;;;;1.13;1.00;;;16.80;76.70;;;;;;4984378;28;95661;-43
2021/04/10 00:54:22;;;;;;;1.83;1.08;;;16.80;76.60;;;;;;4983402;28;95963;-45
2021/04/10 00:56:51;;;;;;;2.50;0.80;;;16.80;76.60;;;;;;4970846;28;98414;-44
2021/04/10 00:59:25;;;;;;;1.73;1.00;;;16.80;76.50;;;;;;4985583;28;97604;-46
2021/04/10 01:01:56;;;;;;;0.60;0.60;;;16.80;76.50;;;;;;4970024;28;95681;-46
2021/04/10 01:04:26;;;;;;;1.30;0.70;;;16.80;76.40;;;;;;4980655;28;95931;-45
2021/04/10 01:06:56;;;;;;;0.95;0.52;;;16.80;76.40;;;;;;4985626;28;97547;-44
2021/04/10 01:09:28;;;;;;;1.15;0.80;;;16.80;76.40;;;;;;5001935;28;95621;-45
2021/04/10 01:12:11;;;;;;;1.45;0.80;;;16.80;76.40;;;;;;4982272;28;95911;-45
2021/04/10 01:14:44;;;;;;;1.55;0.88;;;16.80;76.40;;;;;;4977955;28;95785;-45
2021/04/10 01:17:27;;;;;;;1.45;1.05;;;16.90;76.40;;;;;;4978459;28;95898;-44
2021/04/10 01:20:17;;;;;;;0.80;0.80;;;16.90;76.40;;;;;;4983177;28;95819;-45
2021/04/10 01:23:16;;;;;;;0.75;0.68;;;16.90;76.40;;;;;;4988995;28;95613;-44
2021/04/10 01:26:01;;;;;;;0.75;0.65;;;16.90;76.30;;;;;;4984878;28;96984;-45
2021/04/10 01:28:41;;;;;;;0.80;0.80;;;16.90;76.40;;;;;;4982795;28;96387;-45
2021/04/10 01:31:14;;;;;;;0.90;0.52;;;16.90;76.60;;;;;;4979388;28;95973;-45
2021/04/10 01:33:49;;;;;;;0.60;0.60;;;17.00;76.50;;;;;;4988739;28;96123;-45
2021/04/10 01:36:31;;;;;;;2.10;1.40;;;17.10;76.20;;;;;;4994245;28;95291;-45
2021/04/10 01:39:07;;;;;;;1.50;0.80;;;17.10;75.80;;;;;;4977296;28;96436;-45
2021/04/10 01:41:41;;;;;;;1.00;0.65;;;17.10;75.90;;;;;;4979014;28;95679;-45
2021/04/10 01:44:17;;;;;;;0.93;0.73;;;17.10;75.90;;;;;;4987450;28;96073;-45
2021/04/10 01:46:50;;;;;;;0.90;0.82;;;17.00;75.90;;;;;;4956843;28;95465;-45
2021/04/10 01:49:23;;;;;;;1.23;0.60;;;17.00;76.00;;;;;;4981266;28;95896;-45
2021/04/10 01:51:53;;;;;;;2.35;0.80;;;17.00;76.00;;;;;;4966985;28;97536;-45
2021/04/10 01:54:25;;;;;;;1.25;0.73;;;17.10;76.10;;;;;;4989261;28;95910;-45
2021/04/10 01:56:56;;;;;;;;;;;17.00;76.10;;;;;;4982904;28;95699;-45
2021/04/10 01:59:28;;;;;;;0.68;0.60;;;17.00;76.00;;;;;;4989034;28;97911;-47
2021/04/10 02:01:59;;;;;;;0.93;0.65;;;17.00;76.10;;;;;;4968406;28;95842;-45
2021/04/10 02:04:42;;;;;;;2.05;0.80;;;17.00;76.10;;;;;;4967719;28;96130;-45
2021/04/10 02:07:13;;;;;;;0.60;0.60;;;17.00;76.10;;;;;;4961808;28;95815;-45
2021/04/10 02:09:48;;;;;;;1.40;0.50;;;17.00;76.10;;;;;;4969143;28;98316;-45
2021/04/10 02:12:49;;;;;;;1.30;0.90;;;17.10;76.10;;;;;;4980595;28;95826;-45
2021/04/10 02:15:37;;;;;;;0.90;0.75;;;17.00;76.10;;;;;;4951910;28;95420;-45
2021/04/10 02:18:10;;;;;;;0.90;0.80;;;17.10;76.20;;;;;;4982062;28;95538;-45
2021/04/10 02:20:40;;;;;;;0.80;0.65;;;17.00;76.10;;;;;;4979618;28;96544;-45
2021/04/10 02:23:13;;;;;;;1.80;0.95;;;17.00;76.10;;;;;;4967630;28;95962;-45
2021/04/10 02:25:53;;;;;;;1.08;0.60;;;17.10;76.20;;;;;;5002502;28;95637;-45
2021/04/10 02:28:24;;;;;;;0.80;0.80;;;17.10;76.20;;;;;;4998729;28;95894;-45
2021/04/10 02:30:59;;;;;;;2.13;0.80;;;17.00;76.10;;;;;;4977822;28;96589;-44
2021/04/10 02:33:40;;;;;;;1.45;0.70;;;17.10;76.20;;;;;;4981890;28;95776;-44
2021/04/10 02:36:19;;;;;;;0.85;0.85;;;17.00;76.20;;;;;;4973703;28;95510;-44
2021/04/10 02:38:50;;;;;;;1.02;0.82;;;17.10;76.20;;;;;;4979353;28;97020;-44
2021/04/10 02:41:24;;;;;;;0.82;0.80;;;17.10;76.30;;;;;;4995971;28;96100;-43
2021/04/10 02:44:02;;;;;;;1.88;0.77;;;17.20;76.30;;;;;;4974738;28;95970;-43
2021/04/10 02:46:44;;;;;;;0.75;0.40;;;17.30;76.20;;;;;;4955334;28;97384;-43
2021/04/10 02:49:27;;;;;;;1.20;0.65;;;17.30;76.30;;;;;;4984434;28;96434;-44
2021/04/10 02:52:01;;;;;;;0.90;0.90;;;17.30;76.20;;;;;;4970793;28;96000;-44
2021/04/10 02:54:43;;;;;;;1.88;1.05;;;17.30;76.40;;;;;;4980045;28;95415;-43
2021/04/10 02:57:16;;;;;;;1.70;0.77;;;17.40;76.30;;;;;;4981543;28;95287;-53
2021/04/10 02:59:52;;;;;;;1.40;0.98;;;17.40;76.30;;;;;;4997712;28;96102;-46
2021/04/10 03:02:23;;;;;;;1.13;0.90;;;17.40;76.30;;;;;;4963373;28;96164;-53
2021/04/10 03:04:57;;;;;;;1.27;1.00;;;17.50;76.40;;;;;;4982697;28;95436;-50
2021/04/10 03:07:29;;;;;;;1.55;1.13;;;17.40;76.90;;;;;;4973544;28;96090;-52
2021/04/10 03:10:00;;;;;;;2.50;1.02;;;17.40;76.30;;;;;;4980484;28;99246;-50
2021/04/10 03:12:32;;;;;;;2.55;1.10;;;17.50;76.30;;;;;;4984208;28;95794;-44
2021/04/10 03:15:02;;;;;;;2.35;1.25;;;17.40;76.30;;;;;;4975828;28;96428;-51
2021/04/10 03:17:41;;;;;;;1.52;1.10;;;17.50;76.30;;;;;;4967132;28;95993;-50
2021/04/10 03:20:17;;;;;;;2.20;1.05;;;17.50;76.30;;;;;;4988368;28;95855;-52
2021/04/10 03:22:49;;;;;;;1.25;0.90;;;17.50;76.30;;;;;;4978121;28;98080;-51
2021/04/10 03:25:30;;;;;;;1.00;0.90;;;17.40;76.20;;;;;;4955464;28;95722;-53
2021/04/10 03:28:07;;;;;;;2.08;1.20;;;17.50;76.20;;;;;;4993277;28;95855;-55
2021/04/10 03:30:41;;;;;;;2.67;1.30;;;17.50;76.30;;;;;;4980429;28;96013;-50
2021/04/10 03:33:19;;;;;;;1.30;1.17;;;17.40;76.20;;;;;;4951619;28;96200;-52
2021/04/10 03:35:50;;;;;;;2.97;1.30;;;17.40;76.20;;;;;;4971237;28;96126;-51
2021/04/10 03:38:20;;;;;;;3.83;1.50;;;17.50;76.20;;;;;;4984005;28;95888;-49
2021/04/10 03:40:49;;;;;;;1.80;0.88;;;17.50;76.20;;;;;;4963579;28;95739;-50
2021/04/10 03:43:19;;;;;;;1.73;1.13;;;17.40;76.20;;;;;;4984211;28;96838;-50
2021/04/10 03:45:54;;;;;;;2.13;1.38;;;17.50;76.20;;;;;;4972559;28;96095;-51
2021/04/10 03:48:29;;;;;;;2.17;1.02;;;17.50;76.20;;;;;;4956112;28;95779;-49
2021/04/10 03:51:06;;;;;;;3.05;1.08;;;17.50;76.20;;;;;;4977542;28;95894;-50
2021/04/10 03:53:47;;;;;;;1.63;1.27;;;17.50;76.20;;;;;;4959757;28;98572;-52
2021/04/10 03:56:20;;;;;;;2.03;1.20;;;17.50;76.10;;;;;;4990239;28;95671;-45
2021/04/10 03:58:50;;;;;;;3.78;1.10;;;17.60;76.10;;;;;;4967500;28;95833;-44
2021/04/10 04:01:33;;;;;;;1.33;0.70;;;17.60;76.10;;;;;;4951561;28;96250;-51
2021/04/10 04:04:03;;;;;;;2.72;0.88;;;17.60;76.00;;;;;;4992776;28;98277;-44
2021/04/10 04:06:33;;;;;;;1.85;1.05;;;17.60;76.10;;;;;;4979235;28;95911;-49
2021/04/10 04:09:03;;;;;;;1.80;1.40;;;17.60;76.10;;;;;;4977615;28;95742;-49
2021/04/10 04:11:33;;;;;;;3.57;1.53;;;17.60;76.50;;;;;;4978498;28;95865;-43
2021/04/10 04:14:02;;;;;;;3.20;1.27;;;17.70;76.70;;;;;;4978040;28;96079;-45
2021/04/10 04:16:32;;;;;;;4.15;1.50;;;17.70;76.90;;;;;;4985498;28;95920;-50
2021/04/10 04:19:03;;;;;;;3.95;1.38;;;17.70;76.90;;;;;;4982333;28;95772;-49
2021/04/10 04:21:33;;;;;;;4.40;2.05;;;17.70;77.10;;;;;;4991859;28;95903;-49
2021/04/10 04:24:05;;;;;;;6.10;1.93;;;17.80;77.20;;;;;;4986945;28;95884;-49
2021/04/10 04:26:36;;;;;;;4.18;2.55;;;17.80;77.30;;;;;;4990361;28;95760;-47
2021/04/10 04:29:07;;;;;;;5.53;2.17;;;17.80;78.00;;;;;;4985982;28;96057;-48
2021/04/10 04:31:37;;;;;;;6.03;2.03;;;17.80;77.30;;;;;;4980528;28;95316;-47
2021/04/10 04:34:07;;;;;;;7.70;2.58;;;17.80;77.40;;;;;;4985416;28;95898;-43
2021/04/10 04:36:38;;;;;;;6.50;2.65;;;17.80;77.30;;;;;;4986828;28;95659;-43
2021/04/10 04:39:07;;;;;;;7.95;2.08;;;17.80;77.30;;;;;;4975095;28;95742;-49
2021/04/10 04:41:37;;;;;;;6.88;2.35;;;17.80;77.20;;;;;;4985486;28;95730;-50
2021/04/10 04:44:08;;;;;;;8.45;2.45;;;17.80;77.20;;;;;;4981764;28;95916;-48
2021/04/10 04:46:38;;;;;;;9.13;2.15;;;17.80;77.40;;;;;;4973382;28;95982;-50
2021/04/10 04:49:09;;;;;;;9.02;2.60;;;17.80;77.40;;;;;;4981000;28;95937;-46
2021/04/10 04:51:39;;;;;;;6.05;2.40;;;17.80;77.40;;;;;;4982445;28;95845;-52
2021/04/10 04:54:10;;;;;;;9.40;2.53;;;17.80;77.30;;;;;;4979256;28;96950;-50
2021/04/10 04:56:41;;;;;;;6.32;2.40;;;17.80;77.40;;;;;;4987993;28;95825;-52
2021/04/10 04:59:10;;;;;;;6.78;2.72;;;17.80;77.30;;;;;;4967705;28;95223;-43
2021/04/10 05:01:40;;;;;;;6.00;2.88;;;17.90;77.30;;;;;;4986266;28;95512;-44
2021/04/10 05:04:11;;;;;;;5.68;2.55;;;17.80;77.10;;;;;;4985184;28;97682;-49
2021/04/10 05:06:42;;;;;;;9.27;2.42;;;17.80;77.20;;;;;;4985207;28;95434;-43
2021/04/10 05:09:12;;;;;;;6.25;2.38;;;17.80;77.20;;;;;;4981579;28;95406;-43
2021/04/10 05:11:43;;;;;;;9.23;2.50;;;17.80;77.20;;;;;;4987634;28;95683;-50
2021/04/10 05:14:12;;;;;;;4.80;2.42;;;17.80;77.10;;;;;;4982708;28;96804;-44
2021/04/10 05:16:42;;;;;;;11.38;2.53;;;17.80;76.90;;;;;;4968502;28;95719;-51
2021/04/10 05:19:12;;;;;;;8.48;2.50;;;17.80;76.30;;;;;;4976342;28;96010;-51
2021/04/10 05:21:41;;;;;;;6.65;2.55;;;17.80;76.80;;;;;;4993532;28;95997;-50
2021/04/10 05:24:12;;;;;;;7.28;2.20;;;17.80;76.70;;;;;;4973799;28;95984;-49
2021/04/10 05:26:43;;;;;;;11.98;1.90;;;17.80;76.60;;;;;;4989702;28;95709;-49
2021/04/10 05:29:14;;;;;;;;;;;17.90;76.60;;;;;;4975633;28;97978;-51
2021/04/10 05:31:46;;;;;;;4.78;1.98;;;17.90;76.50;;;;;;4972790;28;95920;-51
2021/04/10 05:34:16;;;;;;;4.95;2.33;;;17.90;76.40;;;;;;4970736;28;96751;-49
2021/04/10 05:36:46;;;;;;;5.10;2.20;;;17.90;76.30;;;;;;4981636;28;98239;-52
2021/04/10 05:39:15;;;;;;;7.10;2.40;;;17.90;76.30;;;;;;4980319;28;96003;-44
2021/04/10 05:41:46;;;;;;;8.90;2.72;;;17.90;76.20;;;;;;4976970;28;95690;-52
2021/04/10 05:44:16;;;;;;;4.90;1.80;;;17.90;76.10;;;;;;4983877;28;96746;-50
2021/04/10 05:46:47;;;;;;;6.03;2.22;;;18.00;76.10;;;;;;4980197;28;99089;-49
2021/04/10 05:49:18;;;;;;;4.68;2.55;;;17.90;76.10;;;;;;4981735;28;95290;-51
2021/04/10 05:51:49;;;;;;;5.80;2.55;;;17.90;76.00;;;;;;4980446;28;95509;-43
2021/04/10 05:54:20;;;;;;;5.88;2.33;;;17.90;76.10;;;;;;4984698;28;96669;-53
2021/04/10 05:56:51;;;;;;;6.35;1.95;;;17.90;76.10;;;;;;4980668;28;95866;-45
2021/04/10 05:59:21;;;;;;;5.50;2.10;;;17.90;76.10;;;;;;4983410;28;97307;-45
2021/04/10 06:01:51;;;;;;;4.88;2.03;;;18.00;76.10;;;;;;4961988;28;95288;-45
2021/04/10 06:04:20;;;;;;;4.80;2.25;;;18.00;76.10;;;;;;4969899;28;98305;-50
2021/04/10 06:06:50;;;;;;;4.53;2.20;;;18.00;75.90;;;;;;4975126;28;95961;-51
2021/04/10 06:09:20;;;;;;;5.63;1.90;;;18.00;76.00;;;;;;4975323;28;96934;-53
2021/04/10 06:11:50;;;;;;;3.72;2.28;;;18.00;75.90;;;;;;4970896;28;95687;-51
2021/04/10 06:14:20;;;;;;;6.18;2.13;;;18.00;75.90;;;;;;4976916;28;95885;-50
2021/04/10 06:16:51;;;;;;;;;;;18.00;75.90;;;;;;4969860;28;95840;-51
2021/04/10 06:19:23;;;;;;;3.90;1.83;;;18.00;75.90;;;;;;4978724;28;95673;-49
2021/04/10 06:21:52;;;;;;;4.03;1.55;;;18.00;75.90;;;;;;4971768;28;95951;-47
2021/04/10 06:24:25;;;;;;;4.03;2.15;;;18.00;75.90;;;;;;4979202;28;96701;-51
2021/04/10 06:26:57;;;;;;;;;;;18.00;75.90;;;;;;4981199;28;95926;-51
2021/04/10 06:29:29;;;;;;;5.15;2.17;;;18.00;75.80;;;;;;4977168;28;98103;-52
2021/04/10 06:32:00;;;;;;;2.70;1.55;;;18.00;75.80;;;;;;4979854;28;95915;-53
2021/04/10 06:34:30;;;;;;;4.15;1.85;;;18.00;75.80;;;;;;4987092;28;95974;-50
2021/04/10 06:37:01;;;;;;;6.93;1.95;;;18.00;75.80;;;;;;4983990;28;95923;-52
2021/04/10 06:39:31;;;;;;;4.75;2.35;;;18.00;75.80;;;;;;4988801;28;95894;-50
2021/04/10 06:42:03;;;;;;;5.82;1.77;;;18.00;76.40;;;;;;4984422;28;95783;-52
2021/04/10 06:44:35;;;;;;;6.13;2.03;;;18.00;75.80;;;;;;4986305;28;96025;-50
2021/04/10 06:47:07;;;;;;;4.22;1.95;;;18.00;75.80;;;;;;4971562;28;96297;-52
2021/04/10 06:49:38;;;;;;;5.45;2.20;;;18.00;75.80;;;;;;4977956;28;95960;-54
2021/04/10 06:52:09;;;;;;;4.38;1.85;;;18.00;75.70;;;;;;4997102;28;95643;-47
2021/04/10 06:54:42;;;;;;;3.38;2.05;;;18.00;75.70;;;;;;4980797;28;95906;-52
2021/04/10 06:57:19;;;;;;;4.57;1.42;;;18.00;75.70;;;;;;4978265;28;103533;-51
2021/04/10 07:00:21;;;;;;;3.88;1.73;;;18.00;75.60;;;;;;4970648;28;97172;-55
2021/04/10 07:02:51;;;;;;;5.38;1.75;;;18.00;75.60;;;;;;4924682;28;96152;-52
2021/04/10 07:05:21;;;;;;;4.25;1.90;;;17.90;75.50;;;;;;4967941;28;97999;-48
2021/04/10 07:07:52;;;;;;;2.65;1.55;;;17.90;75.50;;;;;;4974707;28;95690;-52
2021/04/10 07:10:24;;;;;;;3.42;1.67;;;18.00;75.60;;;;;;4975591;28;95285;-47
2021/04/10 07:12:53;;;;;;;4.45;2.45;;;17.90;75.50;;;;;;4965648;28;95359;-45
2021/04/10 07:15:23;;;;;;;4.72;1.95;;;17.90;75.50;;;;;;4962916;28;97805;-53
2021/04/10 07:18:10;;;;;;;3.25;1.73;;;17.90;75.40;;;;;;4969594;28;97188;-50
2021/04/10 07:20:41;;;;;;;3.90;1.85;;;17.90;75.50;;;;;;4972864;28;95469;-46
2021/04/10 07:23:15;;;;;;;2.90;1.40;;;17.90;75.50;;;;;;4979816;28;95972;-45
2021/04/10 07:25:46;;;;;;;7.53;2.45;;;17.90;75.50;;;;;;4975669;28;96604;-45
2021/04/10 07:28:33;;;;;;;6.40;1.80;;;17.90;75.50;;;;;;4983908;28;97353;-46
2021/04/10 07:31:12;;;;;;;2.45;1.27;;;17.90;75.50;;;;;;4984577;28;95214;-45
2021/04/10 07:33:44;;;;;;;3.97;1.83;;;17.90;75.50;;;;;;4980027;28;95927;-45
2021/04/10 07:36:22;;;;;;;3.00;1.58;;;17.90;75.50;;;;;;4974699;28;96509;-45
2021/04/10 07:39:00;;;;;;;3.42;1.40;;;17.80;75.50;;;;;;4976405;28;95983;-45
2021/04/10 07:41:30;;;;;;;4.20;1.67;;;17.80;75.50;;;;;;4973268;28;95992;-45
2021/04/10 07:44:00;;;;;;;2.70;1.50;;;17.80;75.50;;;;;;4980179;28;95834;-46
2021/04/10 07:46:31;;;;;;;4.35;1.95;;;17.80;75.50;;;;;;4975979;28;95922;-45
2021/04/10 07:49:13;;;;;;;3.72;1.63;;;17.80;75.50;;;;;;4984042;28;97057;-45
2021/04/10 07:52:05;;;;;;;5.03;1.58;;;17.80;75.50;;;;;;4974547;28;98548;-45
2021/04/10 07:54:40;;;;;;;3.35;1.65;;;17.70;76.50;;;;;;4971446;28;95403;-45
2021/04/10 07:57:11;;;;;;;3.42;1.90;;;17.80;76.10;;;;;;4973231;28;95931;-45
2021/04/10 07:59:46;;;;;;;4.80;1.70;;;17.80;75.70;;;;;;4972405;28;95780;-45
2021/04/10 08:02:17;;;;;;;2.20;1.48;;;17.80;75.40;;;;;;4969593;28;96149;-45
2021/04/10 08:04:57;;;;;;;3.33;1.38;;;17.80;75.30;;;;;;4971625;28;95598;-45
2021/04/10 08:07:35;;;;;;;4.15;1.50;;;17.80;75.10;;;;;;4971829;28;96134;-52
2021/04/10 08:10:10;;;;;;;6.35;1.80;;;17.80;75.20;;;;;;4965304;28;96177;-45
2021/04/10 08:12:41;;;;;;;2.85;1.73;;;17.80;75.10;;;;;;4977570;28;95875;-53
2021/04/10 08:15:28;;;;;;;4.17;2.37;;;17.90;75.10;;;;;;4977965;28;95714;-51
2021/04/10 08:18:00;;;;;;;5.55;1.40;;;18.00;75.50;;;;;;4977977;28;102254;-51
2021/04/10 08:20:32;;;;;;;3.13;1.33;;;18.00;75.40;;;;;;4980453;28;96047;-52
2021/04/10 08:23:21;;;;;;;4.72;2.03;;;18.00;75.40;;;;;;4958378;28;96024;-51
2021/04/10 08:25:53;;;;;;;5.75;1.95;;;18.00;75.40;;;;;;4972366;28;96381;-53
2021/04/10 08:28:24;;;;;;;5.00;1.80;;;17.90;75.40;;;;;;4968931;28;95914;-53
2021/04/10 08:31:02;;;;;;;6.80;2.03;;;17.90;75.40;;;;;;4962040;28;95724;-52
2021/04/10 08:33:34;;;;;;;5.28;1.45;;;17.90;75.50;;;;;;4974734;28;95878;-50
2021/04/10 08:36:07;;;;;;;2.92;1.40;;;17.80;75.50;;;;;;4978003;28;95784;-55
2021/04/10 08:38:39;;;;;;;7.95;1.75;;;17.80;75.60;;;;;;4968579;28;95902;-51
2021/04/10 08:41:11;;;;;;;3.20;1.50;;;17.80;75.60;;;;;;4981198;28;97759;-44
2021/04/10 08:43:50;;;;;;;4.13;1.83;;;17.80;75.80;;;;;;4974960;28;95370;-52
2021/04/10 08:46:23;;;;;;;4.50;1.52;;;17.80;75.50;;;;;;4969587;28;95865;-53
2021/04/10 08:48:57;;;;;;;4.05;1.75;;;17.80;75.80;;;;;;4982402;28;97699;-52
2021/04/10 08:51:30;;;;;;;3.92;1.60;;;17.70;75.40;;;;;;4977258;28;95631;-54
2021/04/10 08:54:02;;;;;;;4.07;1.70;;;17.70;75.50;;;;;;4981090;28;95717;-44
2021/04/10 08:56:31;;;;;;;;;;;17.60;75.50;;;;;;4965628;28;96302;-52
2021/04/10 08:59:11;;;;;;;3.90;1.67;;;17.60;75.60;;;;;;4981044;28;95862;-53
2021/04/10 09:01:43;;;;;;;5.80;1.30;;;17.60;75.60;;;;;;4983011;28;96121;-54
2021/04/10 09:04:14;;;;;;;2.67;1.33;;;17.60;75.70;;;;;;4983976;28;95746;-51
2021/04/10 09:06:46;;;;;;;3.50;1.55;;;17.50;75.70;;;;;;4979429;28;95394;-46
2021/04/10 09:09:16;;;;;;;4.85;1.52;;;17.50;75.60;;;;;;4991621;28;102709;-51
2021/04/10 09:11:50;;;;;;;5.75;1.92;;;17.50;75.80;;;;;;4977004;28;95341;-45
2021/04/10 09:14:45;;;;;;;3.75;1.70;;;17.50;75.80;;;;;;4982687;28;95876;-55
2021/04/10 09:17:17;;;;;;;5.22;2.08;;;17.50;76.20;;;;;;4968435;28;95703;-44
2021/04/10 09:19:52;;;;;;;3.73;1.50;;;17.40;76.10;;;;;;4979622;28;96126;-45
2021/04/10 09:22:22;;;;;;;5.55;1.83;;;17.40;76.00;;;;;;4985724;28;96094;-45
2021/04/10 09:24:57;;;;;;;4.45;1.92;;;17.30;76.20;;;;;;4981488;28;95204;-45
2021/04/10 09:27:28;;;;;;;3.47;1.92;;;17.40;76.50;;;;;;4974220;28;96099;-50
2021/04/10 09:30:01;;;;;;;3.47;1.70;;;17.30;76.50;;;;;;4976784;28;95889;-45
2021/04/10 09:32:36;;;;;;;5.53;1.90;;;17.30;76.80;;;;;;4967595;28;95388;-44
2021/04/10 09:35:19;;;;;;;4.75;1.65;;;17.30;77.00;;;;;;4971045;28;95766;-45
2021/04/10 09:37:51;;;;;;;3.58;1.83;;;17.30;76.70;;;;;;4962275;28;95865;-44
2021/04/10 09:40:47;;;;;;;4.88;1.75;;;17.20;76.70;;;;;;4981666;28;96497;-44
2021/04/10 09:43:19;;;;;;;4.68;1.88;;;17.20;76.80;;;;;;4979281;28;95587;-44
2021/04/10 09:45:54;;;;;;;3.60;1.63;;;17.20;76.70;;;;;;4978216;28;95764;-44
2021/04/10 09:48:26;;;;;;;4.53;1.95;;;17.20;76.90;;;;;;4979825;28;95812;-44
2021/04/10 09:50:56;;;;;;;4.32;2.05;;;17.10;76.80;;;;;;4974308;28;96874;-44
2021/04/10 09:53:29;;;;;;;3.38;1.63;;;17.10;76.80;;;;;;4963020;28;95876;-44
2021/04/10 09:56:03;;;;;;;2.97;1.48;;;17.10;77.00;;;;;;4978761;28;96934;-44
2021/04/10 09:58:36;;;;;;;4.40;1.70;;;17.10;77.10;;;;;;4982116;28;95265;-44
2021/04/10 10:01:11;;;;;;;5.25;2.42;;;17.10;77.10;;;;;;4980072;28;95942;-44
2021/04/10 10:03:41;;;;;;;3.60;1.70;;;17.00;76.70;;;;;;4986502;28;95784;-44
2021/04/10 10:06:43;;;;;;;3.95;2.05;;;17.00;76.60;;;;;;4978906;28;95954;-45
2021/04/10 10:09:31;;;;;;;1.77;1.10;;;17.00;76.70;;;;;;4987836;28;95504;-46
2021/04/10 10:12:01;;;;;;;7.20;1.92;;;17.00;76.50;;;;;;4990058;28;96061;-44
2021/04/10 10:14:48;;;;;;;4.63;1.30;;;16.90;76.80;;;;;;4996639;28;96789;-44
2021/04/10 10:17:29;;;;;;;3.38;1.73;;;16.90;77.50;;;;;;4971331;28;95879;-44
2021/04/10 10:20:11;;;;;;;2.35;1.20;;;17.10;77.00;;;;;;4982185;28;96273;-45
2021/04/10 10:22:42;;;;;;;3.53;1.30;;;17.10;76.30;;;;;;4985472;28;96267;-45
2021/04/10 10:25:14;;;;;;;1.70;1.20;;;17.20;76.30;;;;;;4965717;28;97344;-45
2021/04/10 10:27:47;;;;;;;2.72;1.52;;;17.20;76.10;;;;;;4987788;28;95729;-45
2021/04/10 10:30:20;;;;;;;3.53;1.42;;;17.20;76.10;;;;;;4977462;28;98067;-44
2021/04/10 10:32:52;;;;;;;3.05;1.27;;;17.40;76.10;;;;;;4982847;28;96010;-53
2021/04/10 10:35:25;;;;;;;3.22;1.65;;;17.40;76.10;;;;;;4986288;28;95938;-50
2021/04/10 10:37:55;;;;;;;3.60;1.48;;;17.50;75.90;;;;;;4985324;28;95614;-45
2021/04/10 10:40:26;;;;;;;2.28;1.10;;;17.50;76.20;;;;;;4980941;28;95779;-45
2021/04/10 10:43:04;;;;;;;1.42;0.98;;;17.50;76.10;;;;;;4986371;28;95925;-54
2021/04/10 10:45:43;;;;;;;3.13;1.15;;;17.50;75.90;;;;;;4978668;28;95911;-53
2021/04/10 10:48:27;;;;;;;2.38;1.30;;;17.40;75.60;;;;;;4985493;28;95807;-54
2021/04/10 10:51:14;;;;;;;5.50;1.35;;;17.40;75.80;;;;;;4983688;28;95393;-54
2021/04/10 10:53:48;;;;;;;2.25;1.13;;;17.30;75.80;;;;;;4986113;28;95920;-56
2021/04/10 10:56:21;;;;;;;2.72;1.30;;;17.20;75.70;;;;;;4981111;28;95811;-51
2021/04/10 10:58:57;;;;;;;4.15;1.60;;;17.20;75.80;;;;;;4986384;28;95771;-55
2021/04/10 11:01:44;;;;;;;6.50;1.60;;;17.20;75.80;;;;;;4981293;28;95777;-52
2021/04/10 11:04:28;;;;;;;3.47;1.10;;;17.20;75.90;;;;;;4983812;28;95922;-53
2021/04/10 11:07:02;;;;;;;5.63;1.48;;;17.10;75.90;;;;;;4978174;28;97588;-52
2021/04/10 11:09:39;;;;;;;2.47;1.08;;;17.10;75.90;;;;;;5002558;28;97061;-52
2021/04/10 11:12:19;;;;;;;4.68;1.65;;;17.10;76.00;;;;;;4954532;28;96093;-55
2021/04/10 11:15:02;;;;;;;1.90;1.15;;;17.10;76.10;;;;;;4979123;28;96609;-58
2021/04/10 11:17:33;;;;;;;3.25;1.30;;;17.20;76.10;;;;;;4989987;28;98612;-55
2021/04/10 11:20:30;;;;;;;2.60;1.47;;;17.30;76.00;;;;;;4984440;28;95663;-55
2021/04/10 11:23:08;;;;;;;2.17;1.00;;;17.40;75.80;;;;;;4985902;28;95764;-54
2021/04/10 11:25:53;;;;;;;3.28;1.00;;;17.50;75.80;;;;;;4999359;28;96546;-51
2021/04/10 11:28:33;;;;;;;1.92;1.00;;;17.60;75.70;;;;;;4983417;28;95891;-52
2021/04/10 11:31:09;;;;;;;3.47;1.08;;;17.60;75.60;;;;;;4966790;28;95896;-54
2021/04/10 11:33:40;;;;;;;1.90;1.00;;;17.70;75.60;;;;;;4970326;28;95936;-55
2021/04/10 11:36:09;;;;;;;2.88;1.15;;;17.70;75.50;;;;;;4946391;28;95871;-55
2021/04/10 11:39:02;;;;;;;2.90;1.20;;;17.80;75.50;;;;;;4964630;28;95748;-52
2021/04/10 11:41:44;;;;;;;0.68;0.68;;;17.80;75.50;;;;;;4961550;28;95915;-54
2021/04/10 11:44:16;;;;;;;1.20;0.88;;;17.80;75.40;;;;;;4964177;28;95331;-55
2021/04/10 11:46:59;;;;;;;2.13;1.02;;;17.90;75.50;;;;;;4956638;28;95948;-56
2021/04/10 11:49:30;;;;;;;1.48;0.80;;;17.90;75.40;;;;;;4962012;28;96220;-47
2021/04/10 11:52:24;;;;;;;1.58;0.90;;;18.00;75.40;;;;;;4965100;28;95716;-56
2021/04/10 11:55:04;;;;;;;1.90;0.90;;;18.00;75.30;;;;;;4970661;28;95649;-45
2021/04/10 11:57:37;;;;;;;1.38;0.80;;;18.10;75.40;;;;;;4966610;28;95813;-46
2021/04/10 12:00:16;;;;;;;2.00;1.08;;;18.10;75.20;;;;;;4959242;28;97653;-48
2021/04/10 12:02:48;;;;;;;0.82;0.77;;;18.10;75.20;;;;;;4956161;28;96111;-50
2021/04/10 12:05:18;;;;;;;;;;;18.10;75.20;;;;;;4966204;28;96489;-47
2021/04/10 12:08:05;;;;;;;1.67;0.70;;;18.10;75.10;;;;;;4947684;28;97019;-46
2021/04/10 12:10:48;;;;;;;1.77;0.75;;;18.20;75.10;;;;;;4963049;28;95906;-48
2021/04/10 12:13:20;;;;;;;2.63;1.00;;;18.20;75.00;;;;;;4953052;28;96767;-47
2021/04/10 12:15:57;;;;;;;2.03;0.90;;;18.30;74.90;;;;;;4964072;28;96225;-46
2021/04/10 12:18:29;;;;;;;1.40;0.80;;;18.30;74.80;;;;;;4956161;28;95859;-46
2021/04/10 12:20:59;;;;;;;1.67;0.70;;;18.30;74.80;;;;;;4955746;28;95662;-47
2021/04/10 12:23:30;;;;;;;2.00;1.10;;;18.30;74.70;;;;;;4960568;28;95906;-48
2021/04/10 12:26:03;;;;;;;1.95;0.95;;;18.40;74.70;;;;;;4954342;28;95393;-46
2021/04/10 12:28:36;;;;;;;3.40;0.80;;;18.40;74.60;;;;;;4960288;28;97605;-45
2021/04/10 12:31:11;;;;;;;1.10;1.00;;;18.40;74.60;;;;;;4963959;28;95634;-46
2021/04/10 12:33:42;;;;;;;1.13;0.70;;;18.40;74.50;;;;;;4983964;28;96001;-46
2021/04/10 12:36:13;;;;;;;1.83;0.73;;;18.40;74.10;;;;;;4983645;28;95738;-46
2021/04/10 12:38:43;;;;;;;;;;;18.40;73.90;;;;;;4980833;28;97328;-49
2021/04/10 12:41:13;;;;;;;2.72;0.90;;;18.40;73.70;;;;;;4988293;28;97245;-47
2021/04/10 12:43:44;;;;;;;2.97;1.17;;;18.40;73.50;;;;;;4989550;28;96103;-48
2021/04/10 12:46:17;;;;;;;3.35;1.00;;;18.30;73.10;;;;;;4978213;28;95870;-48
2021/04/10 12:48:49;;;;;;;2.20;0.98;;;18.30;72.90;;;;;;4985330;28;96563;-48
2021/04/10 12:51:20;;;;;;;2.33;0.88;;;18.30;72.40;;;;;;4986918;28;95703;-48
2021/04/10 12:53:54;;;;;;;2.40;0.90;;;18.20;72.50;;;;;;4985780;28;96529;-48
2021/04/10 12:56:24;;;;;;;2.78;0.85;;;18.20;72.60;;;;;;4982190;28;98253;-48
2021/04/10 12:58:54;;;;;;;1.75;1.10;;;18.20;72.50;;;;;;4982393;28;96093;-47
2021/04/10 13:01:25;;;;;;;2.15;0.88;;;18.10;72.30;;;;;;4975935;28;96448;-47
2021/04/10 13:03:56;;;;;;;1.90;0.95;;;18.10;72.40;;;;;;4994375;28;96276;-48
2021/04/10 13:06:25;;;;;;;1.92;0.80;;;18.10;72.30;;;;;;4970234;28;95352;-47
2021/04/10 13:08:55;;;;;;;1.80;0.88;;;18.10;72.30;;;;;;4970763;28;97527;-47
2021/04/10 13:11:25;;;;;;;3.30;1.15;;;18.10;72.30;;;;;;4969387;28;96634;-48
2021/04/10 13:13:55;;;;;;;0.93;0.68;;;18.10;72.30;;;;;;4976755;28;95609;-47
2021/04/10 13:16:26;;;;;;;2.30;0.88;;;18.00;72.40;;;;;;4962345;28;95994;-47
2021/04/10 13:18:57;;;;;;;1.67;0.65;;;18.00;72.40;;;;;;4967071;28;95864;-47
2021/04/10 13:21:26;;;;;;;1.25;0.82;;;18.00;72.50;;;;;;4953674;28;97857;-47
2021/04/10 13:23:57;;;;;;;1.63;0.80;;;18.00;72.50;;;;;;4947731;28;95827;-48